sensor_id;sensor_type;location;lat;lon;timestamp;pressure;altitude;pressure_sealevel;temperature;humidity
11676;BME280;5894;42.768;23.404;2023-05-12T00:02:24;95941.47;;;10.60;100.00
11676;BME280;5894;42.768;23.404;2023-05-12T00:04:52;95946.44;;;10.61;100.00
11676;BME280;5894;42.768;23.404;2023-05-12T00:07:19;95949.88;;;10.62;100.00
11676;BME280;5894;42.768;23.404;2023-05-12T00:09:46;95948.41;;;10.56;100.00
11676;BME280;5894;42.768;23.404;2023-05-12T00:12:15;95946.25;;;10.58;100.00
11676;BME280;5894;42.768;23.404;2023-05-12T00:14:42;95942.34;;;10.55;100.00
11676;BME280;5894;42.768;23.404;2023-05-12T00:17:10;95943.41;;;10.54;100.00
11676;BME280;5894;42.768;23.404;2023-05-12T00:19:38;95957.09;;;10.56;100.00
11676;BME280;5894;42.768;23.404;2023-05-12T00:22:08;95900.56;;;10.16;100.00
11676;BME280;5894;42.768;23.404;2023-05-12T00:24:36;95946.72;;;10.46;100.00
11676;BME280;5894;42.768;23.404;2023-05-12T00:27:03;95944.97;;;10.55;100.00
11676;BME280;5894;42.768;23.404;2023-05-12T00:29:30;95950.63;;;10.49;100.00
11676;BME280;5894;42.768;23.404;2023-05-12T00:31:58;95948.75;;;10.36;100.00
11676;BME280;5894;42.768;23.404;2023-05-12T00:34:27;95952.97;;;10.37;100.00
11676;BME280;5894;42.768;23.404;2023-05-12T00:36:54;95949.25;;;10.38;100.00
11676;BME280;5894;42.768;23.404;2023-05-12T00:39:21;95943.19;;;10.37;100.00
11676;BME280;5894;42.768;23.404;2023-05-12T00:41:54;95947.25;;;10.29;100.00
11676;BME280;5894;42.768;23.404;2023-05-12T00:44:22;95952.75;;;10.33;100.00
11676;BME280;5894;42.768;23.404;2023-05-12T00:46:49;95801.94;;;9.25;100.00
11676;BME280;5894;42.768;23.404;2023-05-12T00:49:17;95956.63;;;10.22;100.00
11676;BME280;5894;42.768;23.404;2023-05-12T00:51:46;95954.00;;;10.22;100.00
11676;BME280;5894;42.768;23.404;2023-05-12T00:54:13;95957.53;;;10.31;100.00
11676;BME280;5894;42.768;23.404;2023-05-12T00:56:40;95952.41;;;10.21;100.00
11676;BME280;5894;42.768;23.404;2023-05-12T00:59:08;95956.34;;;10.23;100.00
11676;BME280;5894;42.768;23.404;2023-05-12T01:01:39;95962.69;;;10.22;100.00
11676;BME280;5894;42.768;23.404;2023-05-12T01:04:06;95958.63;;;10.11;100.00
11676;BME280;5894;42.768;23.404;2023-05-12T01:06:37;95961.34;;;10.06;100.00
11676;BME280;5894;42.768;23.404;2023-05-12T01:09:08;95956.34;;;10.05;100.00
11676;BME280;5894;42.768;23.404;2023-05-12T01:11:36;95963.97;;;10.06;100.00
11676;BME280;5894;42.768;23.404;2023-05-12T01:14:04;95963.53;;;9.99;100.00
11676;BME280;5894;42.768;23.404;2023-05-12T01:16:35;95958.78;;;10.01;100.00
11676;BME280;5894;42.768;23.404;2023-05-12T01:19:05;95958.78;;;10.01;100.00
11676;BME280;5894;42.768;23.404;2023-05-12T01:21:36;95963.91;;;9.92;100.00
11676;BME280;5894;42.768;23.404;2023-05-12T01:24:07;95958.78;;;10.01;100.00
11676;BME280;5894;42.768;23.404;2023-05-12T01:26:37;95953.59;;;9.96;100.00
11676;BME280;5894;42.768;23.404;2023-05-12T01:29:05;95962.75;;;9.99;100.00
11676;BME280;5894;42.768;23.404;2023-05-12T01:31:33;95799.09;;;8.84;100.00
11676;BME280;5894;42.768;23.404;2023-05-12T01:34:00;95962.34;;;9.91;100.00
11676;BME280;5894;42.768;23.404;2023-05-12T01:36:28;95962.72;;;9.85;100.00
11676;BME280;5894;42.768;23.404;2023-05-12T01:38:56;95960.56;;;9.87;100.00
11676;BME280;5894;42.768;23.404;2023-05-12T01:41:24;95959.59;;;9.83;100.00
11676;BME280;5894;42.768;23.404;2023-05-12T01:43:53;95951.19;;;9.81;100.00
11676;BME280;5894;42.768;23.404;2023-05-12T01:46:20;95957.09;;;9.73;100.00
11676;BME280;5894;42.768;23.404;2023-05-12T01:48:48;95952.91;;;9.72;100.00
11676;BME280;5894;42.768;23.404;2023-05-12T01:51:15;95955.25;;;9.73;100.00
11676;BME280;5894;42.768;23.404;2023-05-12T01:53:42;95956.81;;;9.74;100.00
11676;BME280;5894;42.768;23.404;2023-05-12T01:56:09;95948.41;;;9.72;100.00
11676;BME280;5894;42.768;23.404;2023-05-12T01:58:37;95956.88;;;9.69;100.00
11676;BME280;5894;42.768;23.404;2023-05-12T02:01:06;95960.06;;;9.66;100.00
11676;BME280;5894;42.768;23.404;2023-05-12T02:03:33;95952.81;;;9.58;100.00
11676;BME280;5894;42.768;23.404;2023-05-12T02:06:07;95950.91;;;9.64;100.00
11676;BME280;5894;42.768;23.404;2023-05-12T02:08:34;95957.16;;;9.68;100.00
11676;BME280;5894;42.768;23.404;2023-05-12T02:11:05;95959.72;;;9.73;100.00
11676;BME280;5894;42.768;23.404;2023-05-12T02:13:33;95920.16;;;9.40;100.00
11676;BME280;5894;42.768;23.404;2023-05-12T02:16:01;95954.25;;;9.50;100.00
11676;BME280;5894;42.768;23.404;2023-05-12T02:18:30;95958.31;;;9.62;100.00
11676;BME280;5894;42.768;23.404;2023-05-12T02:20:57;95954.88;;;9.61;100.00
11676;BME280;5894;42.768;23.404;2023-05-12T02:23:24;95957.16;;;9.68;100.00
11676;BME280;5894;42.768;23.404;2023-05-12T02:25:50;95965.06;;;9.68;100.00
11676;BME280;5894;42.768;23.404;2023-05-12T02:28:18;95955.13;;;9.65;100.00
11676;BME280;5894;42.768;23.404;2023-05-12T02:30:45;95956.22;;;9.77;100.00
11676;BME280;5894;42.768;23.404;2023-05-12T02:33:14;95956.53;;;9.76;100.00
11676;BME280;5894;42.768;23.404;2023-05-12T02:35:42;95948.03;;;9.79;100.00
11676;BME280;5894;42.768;23.404;2023-05-12T02:38:09;95948.53;;;9.81;100.00
11676;BME280;5894;42.768;23.404;2023-05-12T02:40:37;95946.19;;;9.79;100.00
11676;BME280;5894;42.768;23.404;2023-05-12T02:43:04;95945.28;;;9.70;100.00
11676;BME280;5894;42.768;23.404;2023-05-12T02:45:31;95948.19;;;9.69;100.00
11676;BME280;5894;42.768;23.404;2023-05-12T02:47:59;95944.78;;;9.68;100.00
11676;BME280;5894;42.768;23.404;2023-05-12T02:50:25;95943.50;;;9.66;100.00
11676;BME280;5894;42.768;23.404;2023-05-12T02:52:54;95952.41;;;9.70;100.00
11676;BME280;5894;42.768;23.404;2023-05-12T02:55:21;95942.41;;;9.67;100.00
11676;BME280;5894;42.768;23.404;2023-05-12T02:57:48;95950.03;;;9.68;100.00
11676;BME280;5894;42.768;23.404;2023-05-12T03:00:15;95949.25;;;9.68;100.00
11676;BME280;5894;42.768;23.404;2023-05-12T03:02:43;95950.53;;;9.70;100.00
11676;BME280;5894;42.768;23.404;2023-05-12T03:05:09;95942.72;;;9.65;100.00
11676;BME280;5894;42.768;23.404;2023-05-12T03:07:37;95950.13;;;9.63;100.00
11676;BME280;5894;42.768;23.404;2023-05-12T03:10:07;95947.69;;;9.48;100.00
11676;BME280;5894;42.768;23.404;2023-05-12T03:12:35;95947.13;;;9.32;100.00
11676;BME280;5894;42.768;23.404;2023-05-12T03:15:03;95948.09;;;9.36;100.00
11676;BME280;5894;42.768;23.404;2023-05-12T03:17:31;95952.59;;;9.36;100.00
11676;BME280;5894;42.768;23.404;2023-05-12T03:19:58;95900.31;;;9.10;100.00
11676;BME280;5894;42.768;23.404;2023-05-12T03:22:25;95951.53;;;9.37;100.00
11676;BME280;5894;42.768;23.404;2023-05-12T03:24:52;95946.88;;;9.10;100.00
11676;BME280;5894;42.768;23.404;2023-05-12T03:27:21;95900.41;;;8.58;100.00
11676;BME280;5894;42.768;23.404;2023-05-12T03:29:47;95947.16;;;8.84;100.00
11676;BME280;5894;42.768;23.404;2023-05-12T03:32:14;95951.59;;;8.65;100.00
11676;BME280;5894;42.768;23.404;2023-05-12T03:34:41;95946.34;;;8.89;100.00
11676;BME280;5894;42.768;23.404;2023-05-12T03:37:08;95957.09;;;8.93;100.00
11676;BME280;5894;42.768;23.404;2023-05-12T03:39:35;95953.22;;;8.85;100.00
11676;BME280;5894;42.768;23.404;2023-05-12T03:42:02;95960.56;;;8.88;100.00
11676;BME280;5894;42.768;23.404;2023-05-12T03:44:31;95959.72;;;8.93;100.00
11676;BME280;5894;42.768;23.404;2023-05-12T03:46:58;95963.56;;;9.00;100.00
11676;BME280;5894;42.768;23.404;2023-05-12T03:49:25;95965.56;;;9.08;100.00
11676;BME280;5894;42.768;23.404;2023-05-12T03:51:52;95968.78;;;9.24;100.00
11676;BME280;5894;42.768;23.404;2023-05-12T03:54:19;95959.75;;;9.11;100.00
11676;BME280;5894;42.768;23.404;2023-05-12T03:56:46;95966.13;;;9.05;100.00
11676;BME280;5894;42.768;23.404;2023-05-12T03:59:13;95934.63;;;8.76;100.00
11676;BME280;5894;42.768;23.404;2023-05-12T04:01:42;95962.84;;;8.95;100.00
11676;BME280;5894;42.768;23.404;2023-05-12T04:04:09;95953.56;;;8.78;100.00
11676;BME280;5894;42.768;23.404;2023-05-12T04:06:36;95958.31;;;8.76;100.00
11676;BME280;5894;42.768;23.404;2023-05-12T04:09:03;95958.94;;;8.68;100.00
11676;BME280;5894;42.768;23.404;2023-05-12T04:11:30;95967.88;;;8.67;100.00
11676;BME280;5894;42.768;23.404;2023-05-12T04:13:59;95968.94;;;8.66;100.00
11676;BME280;5894;42.768;23.404;2023-05-12T04:16:26;95965.75;;;8.69;100.00
11676;BME280;5894;42.768;23.404;2023-05-12T04:18:54;95974.09;;;8.76;100.00
11676;BME280;5894;42.768;23.404;2023-05-12T04:21:21;95953.66;;;8.68;100.00
11676;BME280;5894;42.768;23.404;2023-05-12T04:23:50;95977.03;;;8.94;100.00
11676;BME280;5894;42.768;23.404;2023-05-12T04:26:18;95975.53;;;8.88;100.00
11676;BME280;5894;42.768;23.404;2023-05-12T04:28:46;95979.50;;;8.85;100.00
11676;BME280;5894;42.768;23.404;2023-05-12T04:31:14;95975.28;;;8.89;100.00
11676;BME280;5894;42.768;23.404;2023-05-12T04:33:41;95969.78;;;8.86;100.00
11676;BME280;5894;42.768;23.404;2023-05-12T04:36:10;95974.75;;;8.87;100.00
11676;BME280;5894;42.768;23.404;2023-05-12T04:38:39;95973.34;;;8.95;100.00
11676;BME280;5894;42.768;23.404;2023-05-12T04:41:06;95977.78;;;8.99;100.00
11676;BME280;5894;42.768;23.404;2023-05-12T04:43:34;95975.88;;;9.05;100.00
11676;BME280;5894;42.768;23.404;2023-05-12T04:46:02;95968.63;;;9.15;100.00
11676;BME280;5894;42.768;23.404;2023-05-12T04:48:29;95966.94;;;9.25;100.00
11676;BME280;5894;42.768;23.404;2023-05-12T04:50:57;95971.94;;;9.26;100.00
11676;BME280;5894;42.768;23.404;2023-05-12T04:53:26;95971.81;;;9.36;100.00
11676;BME280;5894;42.768;23.404;2023-05-12T04:55:53;95983.38;;;9.35;100.00
11676;BME280;5894;42.768;23.404;2023-05-12T04:58:22;95978.88;;;9.41;100.00
11676;BME280;5894;42.768;23.404;2023-05-12T05:00:49;95983.72;;;9.52;100.00
11676;BME280;5894;42.768;23.404;2023-05-12T05:03:17;95985.44;;;9.62;100.00
11676;BME280;5894;42.768;23.404;2023-05-12T05:05:44;95981.59;;;9.54;100.00
11676;BME280;5894;42.768;23.404;2023-05-12T05:08:11;95995.19;;;9.62;100.00
11676;BME280;5894;42.768;23.404;2023-05-12T05:10:40;95989.13;;;9.61;100.00
11676;BME280;5894;42.768;23.404;2023-05-12T05:13:07;95989.69;;;9.58;100.00
11676;BME280;5894;42.768;23.404;2023-05-12T05:15:34;95992.78;;;9.65;100.00
11676;BME280;5894;42.768;23.404;2023-05-12T05:18:02;95984.63;;;9.62;100.00
11676;BME280;5894;42.768;23.404;2023-05-12T05:20:30;95991.13;;;9.69;100.00
11676;BME280;5894;42.768;23.404;2023-05-12T05:22:59;95992.13;;;9.54;100.00
11676;BME280;5894;42.768;23.404;2023-05-12T05:25:26;95990.13;;;9.65;100.00
11676;BME280;5894;42.768;23.404;2023-05-12T05:27:56;95995.19;;;9.62;100.00
11676;BME280;5894;42.768;23.404;2023-05-12T05:30:23;95995.97;;;9.62;100.00
11676;BME280;5894;42.768;23.404;2023-05-12T05:32:50;96005.16;;;9.65;100.00
11676;BME280;5894;42.768;23.404;2023-05-12T05:35:17;96002.72;;;9.68;100.00
11676;BME280;5894;42.768;23.404;2023-05-12T05:37:47;96001.09;;;9.72;100.00
11676;BME280;5894;42.768;23.404;2023-05-12T05:40:15;96005.47;;;9.58;100.00
11676;BME280;5894;42.768;23.404;2023-05-12T05:42:42;96005.72;;;9.62;100.00
11676;BME280;5894;42.768;23.404;2023-05-12T05:45:11;96004.38;;;9.64;100.00
11676;BME280;5894;42.768;23.404;2023-05-12T05:47:38;96007.13;;;9.73;100.00
11676;BME280;5894;42.768;23.404;2023-05-12T05:50:07;96012.91;;;9.75;100.00
11676;BME280;5894;42.768;23.404;2023-05-12T05:52:37;96012.59;;;9.76;100.00
11676;BME280;5894;42.768;23.404;2023-05-12T05:55:04;96012.53;;;9.81;100.00
11676;BME280;5894;42.768;23.404;2023-05-12T05:57:32;96018.38;;;9.78;100.00
11676;BME280;5894;42.768;23.404;2023-05-12T05:59:59;96008.13;;;9.77;100.00
11676;BME280;5894;42.768;23.404;2023-05-12T06:02:28;96009.41;;;9.79;100.00
11676;BME280;5894;42.768;23.404;2023-05-12T06:04:58;96008.34;;;9.80;100.00
11676;BME280;5894;42.768;23.404;2023-05-12T06:07:25;96012.03;;;9.79;100.00
11676;BME280;5894;42.768;23.404;2023-05-12T06:09:53;96003.81;;;9.86;100.00
11676;BME280;5894;42.768;23.404;2023-05-12T06:12:20;96008.91;;;9.77;100.00
11676;BME280;5894;42.768;23.404;2023-05-12T06:14:47;96007.41;;;9.90;100.00
11676;BME280;5894;42.768;23.404;2023-05-12T06:17:14;96005.56;;;9.90;100.00
11676;BME280;5894;42.768;23.404;2023-05-12T06:19:43;96012.34;;;9.97;100.00
11676;BME280;5894;42.768;23.404;2023-05-12T06:22:12;96014.03;;;10.06;100.00
11676;BME280;5894;42.768;23.404;2023-05-12T06:24:39;96026.06;;;10.12;100.00
11676;BME280;5894;42.768;23.404;2023-05-12T06:27:09;95999.22;;;9.91;100.00
11676;BME280;5894;42.768;23.404;2023-05-12T06:29:36;96022.03;;;10.20;100.00
11676;BME280;5894;42.768;23.404;2023-05-12T06:32:03;96023.22;;;10.09;100.00
11676;BME280;5894;42.768;23.404;2023-05-12T06:34:31;96030.22;;;10.18;100.00
11676;BME280;5894;42.768;23.404;2023-05-12T06:37:00;96027.91;;;10.12;100.00
11676;BME280;5894;42.768;23.404;2023-05-12T06:39:27;96043.03;;;10.25;100.00
11676;BME280;5894;42.768;23.404;2023-05-12T06:41:54;96032.91;;;10.13;100.00
11676;BME280;5894;42.768;23.404;2023-05-12T06:44:21;96032.13;;;10.13;100.00
11676;BME280;5894;42.768;23.404;2023-05-12T06:46:51;96024.66;;;10.01;100.00
11676;BME280;5894;42.768;23.404;2023-05-12T06:49:19;96043.72;;;10.12;100.00
11676;BME280;5894;42.768;23.404;2023-05-12T06:51:47;96041.25;;;10.20;100.00
11676;BME280;5894;42.768;23.404;2023-05-12T06:54:15;96033.34;;;10.20;100.00
11676;BME280;5894;42.768;23.404;2023-05-12T06:56:42;96035.69;;;10.22;100.00
11676;BME280;5894;42.768;23.404;2023-05-12T06:59:09;96035.13;;;10.25;100.00
11676;BME280;5894;42.768;23.404;2023-05-12T07:01:37;96037.56;;;10.21;100.00
11676;BME280;5894;42.768;23.404;2023-05-12T07:04:04;96043.59;;;10.22;100.00
11676;BME280;5894;42.768;23.404;2023-05-12T07:06:33;96036.81;;;10.16;100.00
11676;BME280;5894;42.768;23.404;2023-05-12T07:09:00;96002.09;;;9.95;100.00
11676;BME280;5894;42.768;23.404;2023-05-12T07:11:28;96040.03;;;10.13;100.00
11676;BME280;5894;42.768;23.404;2023-05-12T07:13:55;96038.63;;;10.20;100.00
11676;BME280;5894;42.768;23.404;2023-05-12T07:16:22;96022.50;;;10.03;100.00
11676;BME280;5894;42.768;23.404;2023-05-12T07:18:49;96034.69;;;10.18;100.00
11676;BME280;5894;42.768;23.404;2023-05-12T07:21:16;96037.34;;;10.18;100.00
11676;BME280;5894;42.768;23.404;2023-05-12T07:23:43;96040.13;;;10.26;100.00
11676;BME280;5894;42.768;23.404;2023-05-12T07:26:10;96044.53;;;10.31;100.00
11676;BME280;5894;42.768;23.404;2023-05-12T07:28:39;96040.53;;;10.34;100.00
11676;BME280;5894;42.768;23.404;2023-05-12T07:31:07;96036.72;;;10.40;100.00
11676;BME280;5894;42.768;23.404;2023-05-12T07:33:34;96034.47;;;10.33;100.00
11676;BME280;5894;42.768;23.404;2023-05-12T07:36:02;96046.03;;;10.37;100.00
11676;BME280;5894;42.768;23.404;2023-05-12T07:38:29;96036.72;;;10.40;100.00
11676;BME280;5894;42.768;23.404;2023-05-12T07:40:57;96042.78;;;10.40;100.00
11676;BME280;5894;42.768;23.404;2023-05-12T07:43:25;96041.56;;;10.51;100.00
11676;BME280;5894;42.768;23.404;2023-05-12T07:45:53;96042.34;;;10.52;100.00
11676;BME280;5894;42.768;23.404;2023-05-12T07:48:21;96042.97;;;10.62;100.00
11676;BME280;5894;42.768;23.404;2023-05-12T07:50:48;96052.22;;;10.60;100.00
11676;BME280;5894;42.768;23.404;2023-05-12T07:53:15;96046.78;;;10.56;100.00
11676;BME280;5894;42.768;23.404;2023-05-12T07:55:42;96050.88;;;10.62;100.00
11676;BME280;5894;42.768;23.404;2023-05-12T07:58:09;96056.53;;;10.70;100.00
11676;BME280;5894;42.768;23.404;2023-05-12T08:00:36;96047.72;;;10.79;100.00
11676;BME280;5894;42.768;23.404;2023-05-12T08:03:04;96047.53;;;10.89;100.00
11676;BME280;5894;42.768;23.404;2023-05-12T08:05:32;96025.41;;;10.72;100.00
11676;BME280;5894;42.768;23.404;2023-05-12T08:07:59;96045.19;;;10.88;100.00
11676;BME280;5894;42.768;23.404;2023-05-12T08:10:27;96007.13;;;10.75;100.00
11676;BME280;5894;42.768;23.404;2023-05-12T08:12:54;96052.13;;;10.97;100.00
11676;BME280;5894;42.768;23.404;2023-05-12T08:15:22;96049.81;;;11.10;100.00
11676;BME280;5894;42.768;23.404;2023-05-12T08:17:49;96047.06;;;11.15;100.00
11676;BME280;5894;42.768;23.404;2023-05-12T08:20:18;96052.06;;;11.16;100.00
11676;BME280;5894;42.768;23.404;2023-05-12T08:22:44;96050.88;;;11.22;100.00
11676;BME280;5894;42.768;23.404;2023-05-12T08:25:12;96048.16;;;11.27;100.00
11676;BME280;5894;42.768;23.404;2023-05-12T08:27:39;96057.31;;;11.44;100.00
11676;BME280;5894;42.768;23.404;2023-05-12T08:30:07;96060.25;;;11.56;100.00
11676;BME280;5894;42.768;23.404;2023-05-12T08:32:34;96052.13;;;11.66;100.00
11676;BME280;5894;42.768;23.404;2023-05-12T08:35:02;96042.06;;;11.68;100.00
11676;BME280;5894;42.768;23.404;2023-05-12T08:37:31;96053.03;;;11.75;100.00
11676;BME280;5894;42.768;23.404;2023-05-12T08:39:58;96052.03;;;11.85;100.00
11676;BME280;5894;42.768;23.404;2023-05-12T08:42:29;96063.16;;;11.95;100.00
11676;BME280;5894;42.768;23.404;2023-05-12T08:45:01;96060.28;;;12.05;100.00
11676;BME280;5894;42.768;23.404;2023-05-12T08:47:30;96059.63;;;12.00;100.00
11676;BME280;5894;42.768;23.404;2023-05-12T08:50:00;96052.97;;;12.02;100.00
11676;BME280;5894;42.768;23.404;2023-05-12T08:52:29;96058.72;;;12.04;100.00
11676;BME280;5894;42.768;23.404;2023-05-12T08:54:59;96059.00;;;12.17;100.00
11676;BME280;5894;42.768;23.404;2023-05-12T08:57:26;96031.59;;;12.12;100.00
11676;BME280;5894;42.768;23.404;2023-05-12T08:59:55;96050.72;;;12.32;100.00
11676;BME280;5894;42.768;23.404;2023-05-12T09:02:24;96055.78;;;12.42;100.00
11676;BME280;5894;42.768;23.404;2023-05-12T09:04:51;96053.00;;;12.47;100.00
11676;BME280;5894;42.768;23.404;2023-05-12T09:07:20;96051.88;;;12.62;100.00
11676;BME280;5894;42.768;23.404;2023-05-12T09:09:56;96046.03;;;12.73;100.00
11676;BME280;5894;42.768;23.404;2023-05-12T09:12:28;96055.53;;;12.74;100.00
11676;BME280;5894;42.768;23.404;2023-05-12T09:15:02;96048.91;;;12.85;100.00
11676;BME280;5894;42.768;23.404;2023-05-12T09:17:29;96037.28;;;12.95;100.00
11676;BME280;5894;42.768;23.404;2023-05-12T09:19:56;96045.56;;;13.02;100.00
11676;BME280;5894;42.768;23.404;2023-05-12T09:22:27;96041.53;;;13.05;100.00
11676;BME280;5894;42.768;23.404;2023-05-12T09:24:54;96037.91;;;13.01;100.00
11676;BME280;5894;42.768;23.404;2023-05-12T09:27:26;96042.16;;;13.10;100.00
11676;BME280;5894;42.768;23.404;2023-05-12T09:29:53;95999.81;;;12.79;100.00
11676;BME280;5894;42.768;23.404;2023-05-12T09:32:29;96043.16;;;13.14;100.00
11676;BME280;5894;42.768;23.404;2023-05-12T09:35:01;96047.22;;;13.20;100.00
11676;BME280;5894;42.768;23.404;2023-05-12T09:37:29;96040.72;;;13.27;98.94
11676;BME280;5894;42.768;23.404;2023-05-12T09:40:00;96037.59;;;13.33;100.00
11676;BME280;5894;42.768;23.404;2023-05-12T09:42:30;96034.63;;;13.26;100.00
11676;BME280;5894;42.768;23.404;2023-05-12T09:44:58;96019.56;;;13.04;100.00
11676;BME280;5894;42.768;23.404;2023-05-12T09:47:33;96032.09;;;13.21;100.00
11676;BME280;5894;42.768;23.404;2023-05-12T09:50:01;96038.03;;;13.18;100.00
11676;BME280;5894;42.768;23.404;2023-05-12T09:52:29;96035.25;;;13.23;100.00
11676;BME280;5894;42.768;23.404;2023-05-12T09:55:04;96036.47;;;13.17;100.00
11676;BME280;5894;42.768;23.404;2023-05-12T09:57:38;96028.41;;;13.31;100.00
11676;BME280;5894;42.768;23.404;2023-05-12T10:00:07;96035.13;;;13.37;100.00
11676;BME280;5894;42.768;23.404;2023-05-12T10:02:36;96034.06;;;13.38;97.74
11676;BME280;5894;42.768;23.404;2023-05-12T10:05:18;96038.28;;;13.47;97.89
11676;BME280;5894;42.768;23.404;2023-05-12T10:07:47;96025.19;;;13.51;96.94
11676;BME280;5894;42.768;23.404;2023-05-12T10:10:17;96025.53;;;13.49;96.80
11676;BME280;5894;42.768;23.404;2023-05-12T10:12:48;96030.34;;;13.56;97.55
11676;BME280;5894;42.768;23.404;2023-05-12T10:15:16;96024.09;;;13.52;93.45
11676;BME280;5894;42.768;23.404;2023-05-12T10:17:44;96022.09;;;13.57;96.45
11676;BME280;5894;42.768;23.404;2023-05-12T10:20:11;96007.28;;;13.56;97.65
11676;BME280;5894;42.768;23.404;2023-05-12T10:22:39;96014.00;;;13.71;97.87
11676;BME280;5894;42.768;23.404;2023-05-12T10:25:08;96029.00;;;13.84;99.44
11676;BME280;5894;42.768;23.404;2023-05-12T10:27:35;96019.19;;;13.85;98.93
11676;BME280;5894;42.768;23.404;2023-05-12T10:30:05;96018.25;;;13.98;95.51
11676;BME280;5894;42.768;23.404;2023-05-12T10:32:34;96017.94;;;14.00;92.78
11676;BME280;5894;42.768;23.404;2023-05-12T10:35:08;96014.22;;;14.01;92.58
11676;BME280;5894;42.768;23.404;2023-05-12T10:37:38;96007.47;;;14.03;91.80
11676;BME280;5894;42.768;23.404;2023-05-12T10:40:06;96011.69;;;14.04;91.43
11676;BME280;5894;42.768;23.404;2023-05-12T10:42:39;96009.69;;;14.18;91.68
11676;BME280;5894;42.768;23.404;2023-05-12T10:45:15;96007.50;;;14.20;92.83
11676;BME280;5894;42.768;23.404;2023-05-12T10:47:43;96005.16;;;14.19;89.85
11676;BME280;5894;42.768;23.404;2023-05-12T10:50:11;96007.63;;;14.24;89.22
11676;BME280;5894;42.768;23.404;2023-05-12T10:52:39;96006.38;;;14.13;86.18
11676;BME280;5894;42.768;23.404;2023-05-12T10:55:11;96000.94;;;14.26;88.08
11676;BME280;5894;42.768;23.404;2023-05-12T10:57:47;95997.19;;;14.27;87.38
11676;BME280;5894;42.768;23.404;2023-05-12T11:00:21;95966.47;;;14.01;86.31
11676;BME280;5894;42.768;23.404;2023-05-12T11:02:50;95993.91;;;14.30;84.39
11676;BME280;5894;42.768;23.404;2023-05-12T11:05:18;95998.28;;;14.44;87.07
11676;BME280;5894;42.768;23.404;2023-05-12T11:07:47;96003.75;;;14.47;84.15
11676;BME280;5894;42.768;23.404;2023-05-12T11:10:14;95999.69;;;14.50;80.05
11676;BME280;5894;42.768;23.404;2023-05-12T11:12:42;96001.06;;;14.56;83.15
11676;BME280;5894;42.768;23.404;2023-05-12T11:15:11;95953.47;;;14.33;83.20
11676;BME280;5894;42.768;23.404;2023-05-12T11:17:39;96001.84;;;14.74;83.10
11676;BME280;5894;42.768;23.404;2023-05-12T11:20:07;96005.09;;;14.79;83.93
11676;BME280;5894;42.768;23.404;2023-05-12T11:22:35;95996.00;;;14.89;82.71
11676;BME280;5894;42.768;23.404;2023-05-12T11:25:12;96006.91;;;14.96;80.25
11676;BME280;5894;42.768;23.404;2023-05-12T11:27:45;96007.06;;;14.99;80.07
11676;BME280;5894;42.768;23.404;2023-05-12T11:30:13;96013.09;;;15.09;82.82
11676;BME280;5894;42.768;23.404;2023-05-12T11:32:42;96014.81;;;15.13;78.50
11676;BME280;5894;42.768;23.404;2023-05-12T11:35:10;96022.94;;;15.08;80.19
11676;BME280;5894;42.768;23.404;2023-05-12T11:37:39;96015.81;;;15.00;77.04
11676;BME280;5894;42.768;23.404;2023-05-12T11:40:16;96010.63;;;15.03;79.40
11676;BME280;5894;42.768;23.404;2023-05-12T11:42:43;96012.38;;;14.99;78.77
11676;BME280;5894;42.768;23.404;2023-05-12T11:45:25;96008.88;;;15.07;81.22
11676;BME280;5894;42.768;23.404;2023-05-12T11:48:04;96006.03;;;15.21;78.82
11676;BME280;5894;42.768;23.404;2023-05-12T11:50:32;96002.84;;;15.36;76.95
11676;BME280;5894;42.768;23.404;2023-05-12T11:52:58;96005.03;;;15.34;78.02
11676;BME280;5894;42.768;23.404;2023-05-12T11:55:25;96005.00;;;15.43;76.42
11676;BME280;5894;42.768;23.404;2023-05-12T11:57:57;96009.16;;;15.53;76.44
11676;BME280;5894;42.768;23.404;2023-05-12T12:00:33;95986.97;;;15.49;76.53
11676;BME280;5894;42.768;23.404;2023-05-12T12:03:10;95999.28;;;15.62;75.43
11676;BME280;5894;42.768;23.404;2023-05-12T12:05:39;95991.31;;;15.53;74.40
11676;BME280;5894;42.768;23.404;2023-05-12T12:08:08;96002.09;;;15.65;74.17
11676;BME280;5894;42.768;23.404;2023-05-12T12:10:37;96006.09;;;15.71;73.64
11676;BME280;5894;42.768;23.404;2023-05-12T12:13:04;96005.31;;;15.71;72.26
11676;BME280;5894;42.768;23.404;2023-05-12T12:15:31;96002.25;;;15.60;73.19
11676;BME280;5894;42.768;23.404;2023-05-12T12:17:58;95999.53;;;15.69;73.82
11676;BME280;5894;42.768;23.404;2023-05-12T12:20:27;95997.25;;;15.59;74.95
11676;BME280;5894;42.768;23.404;2023-05-12T12:22:54;96009.59;;;15.63;72.35
11676;BME280;5894;42.768;23.404;2023-05-12T12:25:22;96007.47;;;15.57;71.23
11676;BME280;5894;42.768;23.404;2023-05-12T12:27:49;96001.56;;;15.42;71.90
11676;BME280;5894;42.768;23.404;2023-05-12T12:30:17;95996.91;;;15.31;73.02
11676;BME280;5894;42.768;23.404;2023-05-12T12:32:45;95995.78;;;15.40;73.14
11676;BME280;5894;42.768;23.404;2023-05-12T12:35:12;96007.34;;;15.45;72.86
11676;BME280;5894;42.768;23.404;2023-05-12T12:37:40;96003.66;;;15.28;73.46
11676;BME280;5894;42.768;23.404;2023-05-12T12:40:08;96002.88;;;15.28;72.96
11676;BME280;5894;42.768;23.404;2023-05-12T12:42:37;96002.09;;;15.27;73.09
11676;BME280;5894;42.768;23.404;2023-05-12T12:45:06;95991.19;;;15.20;73.22
11676;BME280;5894;42.768;23.404;2023-05-12T12:47:35;95995.88;;;15.23;72.90
11676;BME280;5894;42.768;23.404;2023-05-12T12:50:04;95990.72;;;15.18;75.89
11676;BME280;5894;42.768;23.404;2023-05-12T12:52:32;95988.78;;;15.27;75.95
11676;BME280;5894;42.768;23.404;2023-05-12T12:55:00;95996.59;;;15.32;75.47
11676;BME280;5894;42.768;23.404;2023-05-12T12:57:28;96002.06;;;15.36;72.46
11676;BME280;5894;42.768;23.404;2023-05-12T12:59:55;95994.91;;;15.28;75.57
11676;BME280;5894;42.768;23.404;2023-05-12T13:02:22;95988.56;;;15.41;76.11
11676;BME280;5894;42.768;23.404;2023-05-12T13:04:49;95987.94;;;15.44;73.54